createdAt,value
2018-01-24T00:01:02.369Z,92.00
2018-01-24T00:03:29.839Z,92.10
2018-01-24T00:05:57.503Z,92.20
2018-01-24T00:08:24.956Z,92.20
2018-01-24T00:10:53.155Z,92.20
2018-01-24T00:13:21.025Z,92.20
2018-01-24T00:15:48.484Z,92.20
2018-01-24T00:18:16.282Z,92.20
2018-01-24T00:20:44.740Z,92.20
2018-01-24T00:23:12.988Z,92.40
2018-01-24T00:25:40.434Z,92.10
2018-01-24T00:28:08.140Z,92.10
2018-01-24T00:30:37.489Z,92.20
2018-01-24T00:33:05.343Z,92.10
2018-01-24T00:35:32.808Z,92.20
2018-01-24T00:38:00.279Z,92.20
2018-01-24T00:40:27.722Z,92.20
2018-01-24T00:42:55.262Z,92.20
2018-01-24T00:45:22.699Z,92.20
2018-01-24T00:47:50.924Z,92.20
2018-01-24T00:50:18.389Z,92.20
2018-01-24T00:52:45.943Z,92.20
2018-01-24T00:55:13.386Z,92.20
2018-01-24T00:57:41.309Z,92.20
2018-01-24T01:00:09.550Z,92.20
2018-01-24T01:02:37.007Z,92.20
2018-01-24T01:05:04.470Z,92.20
2018-01-24T01:07:32.678Z,92.20
2018-01-24T01:10:01.270Z,92.20
2018-01-24T01:12:29.693Z,92.30
2018-01-24T01:14:57.155Z,92.30
2018-01-24T01:17:24.604Z,92.30
2018-01-24T01:19:52.288Z,92.40
2018-01-24T01:22:19.759Z,92.40
2018-01-24T01:24:47.984Z,92.50
2018-01-24T01:27:15.974Z,92.40
2018-01-24T01:29:43.945Z,92.50
2018-01-24T01:32:11.407Z,92.10
2018-01-24T01:34:38.868Z,92.10
2018-01-24T01:37:06.352Z,92.10
2018-01-24T01:39:34.565Z,92.10
2018-01-24T01:42:02.041Z,92.10
2018-01-24T01:44:29.512Z,92.20
2018-01-24T01:46:57.980Z,92.30
2018-01-24T01:49:25.949Z,92.30
2018-01-24T01:51:53.708Z,92.30
2018-01-24T01:54:21.168Z,92.30
2018-01-24T01:56:48.652Z,92.40
2018-01-24T01:59:16.869Z,92.30
2018-01-24T02:01:44.341Z,92.40
2018-01-24T02:04:11.818Z,92.40
2018-01-24T02:06:39.370Z,92.40
2018-01-24T02:09:07.294Z,92.40
2018-01-24T02:11:34.768Z,92.30
2018-01-24T02:14:02.965Z,92.30
2018-01-24T02:16:30.439Z,92.20
2018-01-24T02:18:58.187Z,92.20
2018-01-24T02:21:26.155Z,92.20
2018-01-24T02:23:53.757Z,92.20
2018-01-24T02:26:21.979Z,92.10
2018-01-24T02:28:49.727Z,92.10
2018-01-24T02:31:17.620Z,92.10
2018-01-24T02:33:45.098Z,92.00
2018-01-24T02:36:12.577Z,92.00
2018-01-24T02:39:03.611Z,91.90
2018-01-24T02:41:31.517Z,91.90
2018-01-24T02:43:58.969Z,91.80
2018-01-24T02:46:26.446Z,91.80
2018-01-24T02:48:53.921Z,91.80
2018-01-24T02:51:22.175Z,91.70
2018-01-24T02:53:49.648Z,91.70
2018-01-24T02:56:17.986Z,91.80
2018-01-24T02:58:45.428Z,91.80
2018-01-24T03:01:13.317Z,91.80
2018-01-24T03:03:40.768Z,91.80
2018-01-24T03:06:08.300Z,91.80
2018-01-24T03:08:35.749Z,91.80
2018-01-24T03:11:03.456Z,91.80
2018-01-24T03:13:31.388Z,92.10
2018-01-24T03:15:59.215Z,91.70
2018-01-24T03:18:28.089Z,91.80
2018-01-24T03:20:56.304Z,91.70
2018-01-24T03:23:23.780Z,91.70
2018-01-24T03:25:51.360Z,91.70
2018-01-24T03:28:19.068Z,91.70
2018-01-24T03:30:47.762Z,91.60
2018-01-24T03:33:15.241Z,91.60
2018-01-24T03:35:42.689Z,91.60
2018-01-24T03:38:10.185Z,91.60
2018-01-24T03:40:37.633Z,91.50
2018-01-24T03:43:05.116Z,91.50
2018-01-24T03:45:33.332Z,91.50
2018-01-24T03:48:01.209Z,91.50
2018-01-24T03:50:28.713Z,91.50
2018-01-24T03:52:56.221Z,91.50
2018-01-24T03:55:23.956Z,91.40
2018-01-24T03:57:51.408Z,91.50
2018-01-24T04:00:18.877Z,91.40
2018-01-24T04:02:46.329Z,91.40
2018-01-24T04:05:13.803Z,91.30
2018-01-24T04:07:41.253Z,91.30
2018-01-24T04:10:09.068Z,91.30
2018-01-24T04:12:36.836Z,91.30
2018-01-24T04:15:04.454Z,91.30
2018-01-24T04:17:31.895Z,91.40
2018-01-24T04:19:59.719Z,91.20
2018-01-24T04:22:27.164Z,91.20
2018-01-24T04:24:54.624Z,91.20
2018-01-24T04:27:22.997Z,91.10
2018-01-24T04:29:51.167Z,91.10
2018-01-24T04:32:18.644Z,91.10
2018-01-24T04:34:46.968Z,91.10
2018-01-24T04:37:14.442Z,91.10
2018-01-24T04:39:41.881Z,91.10
2018-01-24T04:42:09.349Z,91.10
2018-01-24T04:44:36.831Z,91.10
2018-01-24T04:47:05.327Z,91.10
2018-01-24T04:49:33.536Z,91.30
2018-01-24T04:52:01.016Z,91.30
2018-01-24T04:54:28.463Z,91.30
2018-01-24T04:56:55.913Z,91.30
2018-01-24T04:59:23.605Z,91.30
2018-01-24T05:01:51.074Z,91.50
2018-01-24T05:04:18.863Z,91.50
2018-01-24T05:06:47.081Z,91.70
2018-01-24T05:09:14.875Z,91.70
2018-01-24T05:11:42.439Z,91.70
2018-01-24T05:14:10.978Z,91.80
2018-01-24T05:16:38.422Z,92.00
2018-01-24T05:19:06.279Z,92.00
2018-01-24T05:21:43.677Z,92.10
2018-01-24T05:24:11.863Z,92.20
2018-01-24T05:26:39.334Z,92.20
2018-01-24T05:29:07.107Z,92.30
2018-01-24T05:31:34.909Z,92.30
2018-01-24T05:34:02.348Z,92.30
2018-01-24T05:36:29.833Z,92.20
2018-01-24T05:38:58.035Z,92.20
2018-01-24T05:41:25.524Z,92.20
2018-01-24T05:43:52.977Z,92.20
2018-01-24T05:46:20.646Z,92.10
2018-01-24T05:48:48.103Z,92.10
2018-01-24T05:51:15.765Z,92.00
2018-01-24T05:53:43.208Z,92.00
2018-01-24T05:56:10.990Z,92.00
2018-01-24T05:58:38.898Z,92.00
2018-01-24T06:01:11.492Z,91.90
2018-01-24T06:03:39.074Z,91.80
2018-01-24T06:06:06.554Z,91.80
2018-01-24T06:08:33.991Z,91.60
2018-01-24T06:11:01.824Z,91.50
2018-01-24T06:13:29.699Z,91.50
2018-01-24T06:15:57.515Z,91.30
2018-01-24T06:18:25.765Z,91.10
2018-01-24T06:20:53.427Z,91.10
2018-01-24T06:23:20.906Z,91.10
2018-01-24T06:25:48.440Z,91.10
2018-01-24T06:28:17.238Z,91.00
2018-01-24T06:30:45.208Z,90.90
2018-01-24T06:33:12.688Z,90.90
2018-01-24T06:35:40.913Z,90.70
2018-01-24T06:38:08.496Z,90.70
2018-01-24T06:40:35.945Z,90.60
2018-01-24T06:43:03.414Z,90.60
2018-01-24T06:45:30.879Z,90.50
2018-01-24T06:47:58.516Z,90.40
2018-01-24T06:50:26.384Z,90.30
2018-01-24T06:52:54.178Z,90.50
2018-01-24T06:55:22.400Z,90.10
2018-01-24T06:57:50.097Z,90.10
2018-01-24T07:00:17.737Z,89.70
2018-01-24T07:02:45.188Z,89.70
2018-01-24T07:05:13.072Z,89.60
2018-01-24T07:07:40.511Z,89.10
2018-01-24T07:10:08.402Z,89.00
2018-01-24T07:12:48.835Z,88.90
2018-01-24T07:15:16.292Z,88.90
2018-01-24T07:17:43.736Z,88.70
2018-01-24T07:20:11.630Z,88.60
2018-01-24T07:22:39.125Z,88.40
2018-01-24T07:25:06.553Z,88.40
2018-01-24T07:27:34.410Z,88.60
2018-01-24T07:30:02.272Z,88.30
2018-01-24T07:32:29.752Z,88.00
2018-01-24T07:34:57.208Z,88.10
2018-01-24T07:37:24.682Z,87.80
2018-01-24T07:39:52.915Z,87.70
2018-01-24T07:42:20.486Z,87.70
2018-01-24T07:44:47.969Z,87.50
2018-01-24T07:47:16.527Z,87.60
2018-01-24T07:49:43.994Z,87.50
2018-01-24T07:52:11.611Z,87.30
2018-01-24T07:54:39.637Z,87.30
2018-01-24T07:57:07.077Z,87.00
2018-01-24T07:59:35.315Z,86.70
2018-01-24T08:02:02.757Z,86.80
2018-01-24T08:04:30.231Z,86.60
2018-01-24T08:06:57.686Z,87.00
2018-01-24T08:09:25.560Z,86.30
2018-01-24T08:11:53.103Z,86.10
2018-01-24T08:14:21.012Z,85.90
2018-01-24T08:16:48.455Z,85.80
2018-01-24T08:19:16.832Z,85.60
2018-01-24T08:21:44.548Z,85.60
2018-01-24T08:24:12.025Z,85.80
2018-01-24T08:26:39.497Z,85.60
2018-01-24T08:29:07.471Z,85.50
2018-01-24T08:31:35.311Z,85.60
2018-01-24T08:34:02.760Z,85.60
2018-01-24T08:36:30.243Z,85.60
2018-01-24T08:38:57.727Z,85.50
2018-01-24T08:41:25.945Z,85.50
2018-01-24T08:43:53.415Z,85.20
2018-01-24T08:46:21.924Z,85.00
2018-01-24T08:48:49.373Z,85.00
2018-01-24T08:51:16.852Z,85.10
2018-01-24T08:53:45.825Z,85.20
2018-01-24T08:56:13.299Z,85.20
2018-01-24T08:58:40.782Z,85.00
2018-01-24T09:01:09.128Z,84.90
2018-01-24T09:03:36.579Z,84.90
2018-01-24T09:06:04.061Z,85.00
2018-01-24T09:08:31.537Z,85.10
2018-01-24T09:11:00.087Z,85.00
2018-01-24T09:13:28.265Z,85.00
2018-01-24T09:15:55.705Z,84.50
2018-01-24T09:18:23.183Z,84.40
2018-01-24T09:20:51.131Z,84.20
2018-01-24T09:23:18.622Z,84.00
2018-01-24T09:25:46.841Z,84.00
2018-01-24T09:28:14.565Z,83.90
2018-01-24T09:30:43.309Z,83.70
2018-01-24T09:33:10.794Z,83.60
2018-01-24T09:35:38.528Z,83.70
2018-01-24T09:38:06.419Z,83.70
2018-01-24T09:40:33.917Z,83.50
2018-01-24T09:43:01.392Z,83.30
2018-01-24T09:45:28.868Z,83.40
2018-01-24T09:47:56.344Z,83.30
2018-01-24T09:50:23.842Z,83.10
2018-01-24T09:52:51.394Z,83.10
2018-01-24T09:55:18.828Z,83.30
2018-01-24T09:57:47.280Z,83.10
2018-01-24T10:00:14.739Z,83.00
2018-01-24T10:02:42.210Z,83.30
2018-01-24T10:05:09.706Z,83.30
2018-01-24T10:07:37.147Z,83.50
2018-01-24T10:10:05.803Z,83.10
2018-01-24T10:12:33.651Z,83.10
2018-01-24T10:15:01.107Z,83.30
2018-01-24T10:17:28.620Z,83.40
2018-01-24T10:19:56.553Z,83.20
2018-01-24T10:22:24.778Z,83.60
2018-01-24T10:24:52.259Z,83.50
2018-01-24T10:27:20.338Z,83.60
2018-01-24T10:29:48.233Z,83.60
2018-01-24T10:32:15.664Z,83.20
2018-01-24T10:34:44.357Z,83.20
2018-01-24T10:37:12.373Z,83.10
2018-01-24T10:39:39.844Z,82.70
2018-01-24T10:42:07.312Z,83.30
2018-01-24T10:44:34.792Z,82.80
2018-01-24T10:47:02.258Z,82.50
2018-01-24T10:49:29.901Z,82.40
2018-01-24T10:51:58.112Z,82.00
2018-01-24T10:54:26.370Z,81.20
2018-01-24T10:56:53.879Z,81.50
2018-01-24T10:59:21.326Z,81.20
2018-01-24T11:01:48.818Z,81.00
2018-01-24T11:04:16.260Z,80.90
2018-01-24T11:06:43.715Z,80.90
2018-01-24T11:09:12.557Z,80.70
2018-01-24T11:11:40.842Z,80.40
2018-01-24T11:14:09.829Z,80.00
2018-01-24T11:16:39.112Z,79.70
2018-01-24T11:19:07.447Z,79.60
2018-01-24T11:21:35.814Z,79.40
2018-01-24T11:24:04.774Z,79.30
2018-01-24T11:26:32.440Z,79.00
2018-01-24T11:29:01.631Z,78.70
2018-01-24T11:31:31.270Z,78.50
2018-01-24T11:34:00.491Z,78.50
2018-01-24T11:36:29.667Z,78.50
2018-01-24T11:38:59.287Z,78.40
2018-01-24T11:41:30.073Z,77.90
2018-01-24T11:43:59.070Z,78.00
2018-01-24T11:46:30.213Z,78.00
2018-01-24T11:48:58.612Z,78.00
2018-01-24T11:51:28.306Z,77.90
2018-01-24T11:53:57.823Z,78.10
2018-01-24T11:56:26.193Z,77.90
2018-01-24T11:58:55.469Z,77.90
2018-01-24T12:01:23.847Z,77.80
2018-01-24T12:03:51.821Z,77.80
2018-01-24T12:06:19.308Z,78.20
2018-01-24T12:08:49.188Z,78.60
2018-01-24T12:11:17.249Z,78.60
2018-01-24T12:13:46.033Z,78.20
2018-01-24T12:16:13.548Z,78.20
2018-01-24T12:18:41.519Z,78.50
2018-01-24T12:21:09.275Z,78.30
2018-01-24T12:23:36.741Z,78.10
2018-01-24T12:26:04.463Z,78.30
2018-01-24T12:28:32.125Z,78.30
2018-01-24T12:31:01.022Z,78.30
2018-01-24T12:33:29.248Z,78.60
2018-01-24T12:35:56.711Z,78.00
2018-01-24T12:38:24.372Z,78.30
2018-01-24T12:40:51.838Z,78.50
2018-01-24T12:43:19.280Z,78.30
2018-01-24T12:45:46.764Z,78.60
2018-01-24T12:48:14.277Z,78.30
2018-01-24T12:50:41.736Z,78.00
2018-01-24T12:53:10.448Z,78.30
2018-01-24T12:55:37.919Z,78.30
2018-01-24T12:58:05.400Z,77.80
2018-01-24T13:00:33.651Z,77.70
2018-01-24T13:03:01.095Z,77.70
2018-01-24T13:05:28.565Z,77.80
2018-01-24T13:07:56.167Z,77.50
2018-01-24T13:10:24.805Z,77.40
2018-01-24T13:12:52.594Z,77.40
2018-01-24T13:15:20.849Z,77.70
2018-01-24T13:17:48.800Z,77.70
2018-01-24T13:20:16.850Z,77.30
2018-01-24T13:22:44.311Z,77.30
2018-01-24T13:25:12.194Z,77.50
2018-01-24T13:27:39.962Z,77.00
2018-01-24T13:30:07.715Z,77.10
2018-01-24T13:32:35.212Z,77.00
2018-01-24T13:35:02.689Z,77.00
2018-01-24T13:37:30.333Z,76.90
2018-01-24T13:39:57.813Z,77.20
2018-01-24T13:42:25.558Z,77.60
2018-01-24T13:44:53.821Z,77.20
2018-01-24T13:47:21.379Z,77.20
2018-01-24T13:49:49.603Z,77.10
2018-01-24T13:52:17.598Z,77.10
2018-01-24T13:54:45.040Z,77.00
2018-01-24T13:57:12.808Z,77.00
2018-01-24T13:59:40.301Z,77.10
2018-01-24T14:02:07.753Z,77.00
2018-01-24T14:04:35.357Z,76.90
2018-01-24T14:07:03.189Z,76.90
2018-01-24T14:09:31.948Z,77.10
2018-01-24T14:11:59.393Z,77.00
2018-01-24T14:14:27.310Z,77.10
2018-01-24T14:16:55.535Z,77.10
2018-01-24T14:19:23.294Z,77.00
2018-01-24T14:21:51.785Z,77.00
2018-01-24T14:24:19.237Z,77.00
2018-01-24T14:26:47.701Z,77.00
2018-01-24T14:29:15.436Z,77.20
2018-01-24T14:31:44.220Z,76.80
2018-01-24T14:34:11.705Z,76.80
2018-01-24T14:36:39.154Z,76.90
2018-01-24T14:39:06.707Z,77.00
2018-01-24T14:41:34.149Z,77.00
2018-01-24T14:44:01.609Z,76.80
2018-01-24T14:46:29.075Z,76.80
2018-01-24T14:48:56.644Z,76.90
2018-01-24T14:51:24.100Z,76.90
2018-01-24T14:53:51.785Z,76.80
2018-01-24T14:56:19.264Z,76.50
2018-01-24T14:58:46.718Z,76.60
2018-01-24T15:01:14.681Z,76.70
2018-01-24T15:03:42.412Z,76.60
2018-01-24T15:06:10.642Z,76.50
2018-01-24T15:08:38.854Z,76.40
2018-01-24T15:11:06.692Z,76.40
2018-01-24T15:13:35.337Z,76.30
2018-01-24T15:16:02.909Z,76.30
2018-01-24T15:18:30.416Z,76.30
2018-01-24T15:20:59.384Z,76.20
2018-01-24T15:23:27.615Z,76.30
2018-01-24T15:25:55.144Z,76.20
2018-01-24T15:28:22.993Z,76.00
2018-01-24T15:30:50.932Z,76.20
2018-01-24T15:33:19.126Z,76.30
2018-01-24T15:35:46.582Z,76.00
2018-01-24T15:38:14.052Z,76.00
2018-01-24T15:40:41.621Z,76.10
2018-01-24T15:43:09.100Z,76.40
2018-01-24T15:45:36.631Z,76.40
2018-01-24T15:48:04.155Z,76.80
2018-01-24T15:50:31.986Z,77.00
2018-01-24T15:52:59.460Z,76.70
2018-01-24T15:55:27.220Z,76.70
2018-01-24T15:57:54.657Z,77.00
2018-01-24T16:00:22.111Z,77.70
2018-01-24T16:02:49.576Z,78.20
2018-01-24T16:05:17.114Z,77.00
2018-01-24T16:07:44.551Z,77.00
2018-01-24T16:10:12.538Z,76.70
2018-01-24T16:12:40.475Z,76.80
2018-01-24T16:15:08.209Z,76.80
2018-01-24T16:17:35.656Z,76.70
2018-01-24T16:20:03.121Z,76.50
2018-01-24T16:22:32.000Z,76.60
2018-01-24T16:24:59.470Z,76.70
2018-01-24T16:27:28.649Z,75.90
2018-01-24T16:29:56.572Z,75.60
2018-01-24T16:32:24.040Z,75.30
2018-01-24T16:34:51.563Z,74.90
2018-01-24T16:37:19.001Z,74.90
2018-01-24T16:39:46.614Z,74.40
2018-01-24T16:42:14.127Z,74.70
2018-01-24T16:44:41.588Z,74.70
2018-01-24T16:47:10.241Z,74.30
2018-01-24T16:49:38.075Z,74.10
2018-01-24T16:52:06.710Z,73.80
2018-01-24T16:54:34.228Z,73.80
2018-01-24T16:57:01.703Z,73.70
2018-01-24T16:59:29.172Z,73.70
2018-01-24T17:01:56.632Z,74.00
2018-01-24T17:04:24.901Z,73.30
2018-01-24T17:06:52.374Z,73.30
2018-01-24T17:09:20.431Z,73.30
2018-01-24T17:11:47.886Z,73.00
2018-01-24T17:14:15.656Z,72.90
2018-01-24T17:16:43.176Z,72.80
2018-01-24T17:19:10.664Z,72.30
2018-01-24T17:21:38.433Z,72.70
2018-01-24T17:24:05.908Z,72.20
2018-01-24T17:26:34.124Z,72.10
2018-01-24T17:29:02.241Z,72.00
2018-01-24T17:31:30.160Z,71.60
2018-01-24T17:33:57.612Z,71.40
2018-01-24T17:36:25.102Z,71.00
2018-01-24T17:38:52.567Z,70.90
2018-01-24T17:41:20.060Z,70.50
2018-01-24T17:43:48.714Z,70.10
2018-01-24T17:46:16.604Z,70.10
2018-01-24T17:48:44.041Z,69.70
2018-01-24T17:51:11.520Z,69.80
2018-01-24T17:53:39.729Z,69.50
2018-01-24T17:56:07.425Z,69.40
2018-01-24T17:58:35.036Z,69.30
2018-01-24T18:01:03.454Z,68.30
2018-01-24T18:03:30.923Z,68.40
2018-01-24T18:05:58.376Z,68.50
2018-01-24T18:08:26.771Z,68.30
2018-01-24T18:10:54.723Z,68.30
2018-01-24T18:13:22.701Z,68.50
2018-01-24T18:15:50.166Z,68.30
2018-01-24T18:18:17.632Z,68.30
2018-01-24T18:20:45.874Z,68.00
2018-01-24T18:23:13.763Z,68.00
2018-01-24T18:25:41.209Z,68.00
2018-01-24T18:28:09.074Z,67.80
2018-01-24T18:30:36.940Z,67.90
2018-01-24T18:33:04.504Z,68.10
2018-01-24T18:35:31.997Z,68.00
2018-01-24T18:38:00.901Z,68.00
2018-01-24T18:40:28.337Z,68.00
2018-01-24T18:42:56.574Z,68.00
2018-01-24T18:45:24.022Z,68.00
2018-01-24T18:47:51.521Z,68.10
2018-01-24T18:50:19.763Z,68.30
2018-01-24T18:52:47.239Z,68.30
2018-01-24T18:55:15.532Z,68.60
2018-01-24T18:57:43.756Z,68.30
2018-01-24T19:00:11.367Z,68.20
2018-01-24T19:02:39.586Z,68.50
2018-01-24T19:05:07.097Z,68.50
2018-01-24T19:07:35.304Z,68.20
2018-01-24T19:10:03.036Z,68.20
2018-01-24T19:12:30.927Z,68.20
2018-01-24T19:14:58.359Z,67.90
2018-01-24T19:17:26.670Z,67.90
2018-01-24T19:19:54.108Z,67.80
2018-01-24T19:22:22.035Z,67.60
2018-01-24T19:24:50.991Z,67.60
2018-01-24T19:27:18.885Z,67.60
2018-01-24T19:29:46.939Z,67.80
2018-01-24T19:32:14.719Z,67.60
2018-01-24T19:34:42.184Z,67.50
2018-01-24T19:37:09.859Z,67.50
2018-01-24T19:39:38.119Z,67.60
2018-01-24T19:42:05.750Z,67.60
2018-01-24T19:44:33.343Z,68.20
2018-01-24T19:47:00.886Z,67.70
2018-01-24T19:49:28.334Z,67.80
2018-01-24T19:51:55.847Z,67.70
2018-01-24T19:54:23.525Z,67.60
2018-01-24T19:56:50.984Z,67.70
2018-01-24T19:59:18.460Z,67.90
2018-01-24T20:01:45.915Z,67.80
2018-01-24T20:04:13.409Z,67.60
2018-01-24T20:06:41.642Z,67.70
2018-01-24T20:09:09.634Z,67.70
2018-01-24T20:11:37.075Z,67.80
2018-01-24T20:14:05.834Z,67.70
2018-01-24T20:16:33.307Z,67.70
2018-01-24T20:19:00.807Z,67.60
2018-01-24T20:21:28.268Z,67.70
2018-01-24T20:23:56.897Z,67.60
2018-01-24T20:26:24.728Z,67.60
2018-01-24T20:28:53.377Z,67.60
2018-01-24T20:31:21.163Z,67.60
2018-01-24T20:33:48.637Z,67.50
2018-01-24T20:36:16.865Z,67.60
2018-01-24T20:38:44.337Z,67.50
2018-01-24T20:41:11.786Z,67.60
2018-01-24T20:43:39.264Z,67.60
2018-01-24T20:46:07.490Z,67.80
2018-01-24T20:48:35.038Z,67.70
2018-01-24T20:51:02.492Z,67.80
2018-01-24T20:53:29.990Z,67.90
2018-01-24T20:55:57.420Z,68.00
2018-01-24T20:58:24.920Z,68.00
2018-01-24T21:00:52.391Z,68.20
2018-01-24T21:03:20.626Z,68.30
2018-01-24T21:05:48.361Z,68.20
2018-01-24T21:08:15.844Z,68.10
2018-01-24T21:10:44.033Z,68.20
2018-01-24T21:13:11.905Z,68.40
2018-01-24T21:15:39.384Z,68.40
2018-01-24T21:18:07.593Z,68.40
2018-01-24T21:20:35.397Z,68.30
2018-01-24T21:23:03.267Z,68.30
2018-01-24T21:25:31.505Z,68.40
2018-01-24T21:27:59.305Z,68.40
2018-01-24T21:30:27.361Z,68.50
2018-01-24T21:33:06.689Z,68.70
2018-01-24T21:35:46.112Z,69.20
2018-01-24T21:38:13.568Z,68.60
2018-01-24T21:40:41.041Z,68.60
2018-01-24T21:43:08.502Z,68.70
2018-01-24T21:45:36.027Z,68.70
2018-01-24T21:48:03.500Z,68.70
2018-01-24T21:50:30.966Z,68.80
2018-01-24T21:52:58.411Z,68.90
2018-01-24T21:55:25.960Z,68.90
2018-01-24T21:57:53.460Z,69.00
2018-01-24T22:00:20.953Z,69.20
2018-01-24T22:02:49.222Z,69.10
2018-01-24T22:05:17.532Z,69.00
2018-01-24T22:07:45.006Z,69.00
2018-01-24T22:10:12.783Z,68.90
2018-01-24T22:12:40.635Z,69.00
2018-01-24T22:15:08.532Z,69.10
2018-01-24T22:17:35.973Z,69.30
2018-01-24T22:20:03.479Z,69.60
2018-01-24T22:22:31.395Z,69.90
2018-01-24T22:24:58.851Z,70.30
2018-01-24T22:27:26.916Z,70.70
2018-01-24T22:29:56.527Z,71.20
2018-01-24T22:32:23.981Z,71.10
2018-01-24T22:34:51.493Z,71.40
2018-01-24T22:37:18.974Z,71.50
2018-01-24T22:39:46.387Z,71.80
2018-01-24T22:42:13.859Z,71.90
2018-01-24T22:44:41.311Z,72.00
2018-01-24T22:47:08.861Z,72.10
2018-01-24T22:49:36.884Z,72.00
2018-01-24T22:52:04.431Z,71.90
2018-01-24T22:54:31.854Z,72.30
2018-01-24T22:56:59.380Z,72.10
2018-01-24T22:59:26.820Z,72.20
2018-01-24T23:01:54.295Z,72.10
2018-01-24T23:04:21.745Z,72.20
2018-01-24T23:06:49.326Z,72.20
2018-01-24T23:09:17.984Z,72.20
2018-01-24T23:11:45.649Z,72.20
2018-01-24T23:14:13.713Z,72.20
2018-01-24T23:16:41.156Z,72.20
2018-01-24T23:19:08.652Z,72.40
2018-01-24T23:21:36.964Z,72.60
2018-01-24T23:24:04.790Z,72.60
2018-01-24T23:26:33.031Z,73.00
2018-01-24T23:29:00.652Z,73.00
2018-01-24T23:31:28.376Z,73.20
2018-01-24T23:33:55.812Z,73.40
2018-01-24T23:36:23.282Z,73.50
2018-01-24T23:38:51.502Z,73.80
2018-01-24T23:41:19.016Z,73.80
2018-01-24T23:43:46.485Z,73.80
2018-01-24T23:46:14.020Z,74.20
2018-01-24T23:48:41.497Z,74.40
2018-01-24T23:51:09.136Z,74.30
2018-01-24T23:53:36.601Z,74.50
2018-01-24T23:56:04.108Z,74.60
2018-01-24T23:58:31.817Z,75.00
